Terminal Aerodrome Forecast
Issued by NWS Sioux Falls, SD

Home | Current Version | Previous Version | Graphics & Text | Print | Product List | Glossary Off
Versions: 1 2 3 4 5 6 7 8 9 10 11 12 13 14

000
FTUS43 KFSD 241135
TAFHON
TAF
KHON 241135Z 2412/2512 16009KT P6SM FEW110 BKN200
     FM241400 17010KT P6SM SCT110
     FM242300 19012KT P6SM VCTS SCT100CB BKN180
     FM250200 19008KT P6SM SCT110
     FM250500 VRB03KT P6SM SCT200=

USA.gov is the U.S. government's official web portal to all federal, state and local government web resources and services.